Time;durP1;ratioP1;P1;durP2;ratioP2;P2;SDS_P1;SDS_P2;PMS_P1;PMS_P2;Temp;Humidity;BMP_temperature;BMP_pressure;BME280_temperature;BME280_humidity;BME280_pressure;Samples;Min_cycle;Max_cycle;Signal;HPM_P1;HPM_P2
2022/02/21 00:00:11;;;;;;;3.50;0.93;;;6.70;94.10;;;;;;2081439;28;20295;-67
2022/02/21 00:01:12;;;;;;;3.40;1.08;;;6.70;94.00;;;;;;2081501;28;20270;-67
2022/02/21 00:02:13;;;;;;;5.93;1.43;;;6.70;93.60;;;;;;2081458;28;20243;-67
2022/02/21 00:03:15;;;;;;;5.50;1.37;;;6.70;93.70;;;;;;2072717;28;20484;-68
2022/02/21 00:04:16;;;;;;;4.13;1.42;;;6.70;93.40;;;;;;2061654;28;20179;-67
2022/02/21 00:05:18;;;;;;;2.35;1.05;;;6.70;92.90;;;;;;2064322;28;20186;-67
2022/02/21 00:06:19;;;;;;;4.78;1.20;;;6.80;92.90;;;;;;2056294;28;20616;-68
2022/02/21 00:07:20;;;;;;;3.20;1.08;;;6.70;93.40;;;;;;2056659;28;20183;-68
2022/02/21 00:08:20;;;;;;;1.93;0.93;;;6.70;94.20;;;;;;2072624;28;20190;-67
2022/02/21 00:09:21;;;;;;;4.60;1.47;;;6.70;94.10;;;;;;2081582;28;20189;-68
2022/02/21 00:10:22;;;;;;;2.00;1.03;;;6.60;94.40;;;;;;2072542;28;20179;-68
2022/02/21 00:11:23;;;;;;;3.92;1.20;;;6.60;94.70;;;;;;2064714;28;20189;-68
2022/02/21 00:12:24;;;;;;;8.43;1.27;;;6.70;93.80;;;;;;2072572;28;20192;-67
2022/02/21 00:13:24;;;;;;;2.47;1.00;;;6.70;93.90;;;;;;2081369;28;20184;-67
2022/02/21 00:14:25;;;;;;;5.53;1.10;;;6.70;93.60;;;;;;2081504;28;20177;-68
2022/02/21 00:15:26;;;;;;;3.50;1.27;;;6.70;93.60;;;;;;2080805;28;20177;-68
2022/02/21 00:16:27;;;;;;;2.60;0.95;;;6.70;93.60;;;;;;2081312;28;20736;-68
2022/02/21 00:17:27;;;;;;;3.43;1.10;;;6.80;93.60;;;;;;2081401;28;20186;-67
2022/02/21 00:18:28;;;;;;;2.90;1.20;;;6.80;93.10;;;;;;2081069;28;20188;-68
2022/02/21 00:19:29;;;;;;;2.60;0.80;;;6.80;93.00;;;;;;2081087;28;20239;-68
2022/02/21 00:20:29;;;;;;;2.63;1.00;;;6.80;92.90;;;;;;2081349;28;20188;-67
2022/02/21 00:21:30;;;;;;;2.23;1.13;;;6.90;92.70;;;;;;2072648;28;20181;-68
2022/02/21 00:22:31;;;;;;;4.60;1.15;;;6.80;92.70;;;;;;2072711;28;20321;-67
2022/02/21 00:23:32;;;;;;;1.50;0.93;;;6.80;92.80;;;;;;2080854;28;20586;-67
2022/02/21 00:24:33;;;;;;;3.30;0.90;;;6.90;92.40;;;;;;2080831;28;20177;-68
2022/02/21 00:25:33;;;;;;;2.13;0.77;;;6.90;92.90;;;;;;2080840;28;20622;-67
2022/02/21 00:26:34;;;;;;;6.23;1.07;;;6.90;92.20;;;;;;2072498;28;20173;-67
2022/02/21 00:27:35;;;;;;;2.03;0.83;;;6.90;92.40;;;;;;2072646;28;20631;-67
2022/02/21 00:28:36;;;;;;;4.45;1.10;;;6.90;92.10;;;;;;2081411;28;20177;-67
2022/02/21 00:29:37;;;;;;;6.97;1.20;;;6.90;92.30;;;;;;2081734;28;20188;-68
2022/02/21 00:30:37;;;;;;;4.90;1.27;;;7.00;92.20;;;;;;2072684;28;20192;-68
2022/02/21 00:31:38;;;;;;;4.40;1.00;;;7.00;92.30;;;;;;2064527;28;20249;-68
2022/02/21 00:32:39;;;;;;;2.37;0.80;;;7.00;91.90;;;;;;2072659;28;20178;-70
2022/02/21 00:33:40;;;;;;;5.30;1.23;;;7.00;91.90;;;;;;2072576;28;20265;-68
2022/02/21 00:34:41;;;;;;;2.33;0.90;;;7.00;92.10;;;;;;2064498;28;20171;-68
2022/02/21 00:35:41;;;;;;;2.17;1.07;;;7.00;92.00;;;;;;2064203;28;20209;-67
2022/02/21 00:36:42;;;;;;;3.80;1.27;;;7.00;92.20;;;;;;2072595;28;20214;-67
2022/02/21 00:37:43;;;;;;;4.60;1.30;;;7.00;92.40;;;;;;2081264;28;20205;-68
2022/02/21 00:38:43;;;;;;;2.47;1.30;;;7.00;92.40;;;;;;2072453;28;20240;-68
2022/02/21 00:39:44;;;;;;;4.47;1.10;;;7.00;92.50;;;;;;2056338;28;20180;-68
2022/02/21 00:40:45;;;;;;;3.33;1.00;;;7.00;92.40;;;;;;2064368;28;20231;-68
2022/02/21 00:41:45;;;;;;;6.00;1.00;;;7.00;92.40;;;;;;2080749;28;20181;-68
2022/02/21 00:42:46;;;;;;;1.03;0.90;;;7.00;92.90;;;;;;2081255;28;20185;-67
2022/02/21 00:43:47;;;;;;;4.68;1.42;;;7.00;92.10;;;;;;2081401;28;20186;-68
2022/02/21 00:44:48;;;;;;;1.00;0.70;;;7.00;92.10;;;;;;2081210;28;20191;-67
2022/02/21 00:45:49;;;;;;;4.28;1.50;;;7.00;92.10;;;;;;2072356;28;20244;-67
2022/02/21 00:46:50;;;;;;;1.43;1.03;;;7.00;92.40;;;;;;2064894;28;20781;-67
2022/02/21 00:47:51;;;;;;;6.00;0.90;;;7.00;92.50;;;;;;2072387;28;20184;-68
2022/02/21 00:48:52;;;;;;;3.47;1.10;;;7.00;92.70;;;;;;2081236;28;20181;-68
2022/02/21 00:49:54;;;;;;;1.47;0.80;;;7.00;93.00;;;;;;2081345;28;20189;-67
2022/02/21 00:50:55;;;;;;;3.13;0.90;;;6.90;93.10;;;;;;2072608;28;20205;-68
2022/02/21 00:51:58;;;;;;;2.47;1.10;;;6.90;93.60;;;;;;2064428;28;20188;-69
2022/02/21 00:52:59;;;;;;;4.88;1.45;;;6.90;94.00;;;;;;2072821;28;20215;-69
2022/02/21 00:54:00;;;;;;;3.90;1.17;;;6.80;93.90;;;;;;2081128;28;20192;-68
2022/02/21 00:55:01;;;;;;;2.23;0.90;;;6.80;94.20;;;;;;2072380;28;20694;-67
2022/02/21 00:56:02;;;;;;;0.80;0.80;;;6.80;95.00;;;;;;2072079;28;20577;-68
2022/02/21 00:57:02;;;;;;;1.77;0.70;;;6.80;95.20;;;;;;2072557;28;20180;-69
2022/02/21 00:58:04;;;;;;;1.57;1.00;;;6.70;95.90;;;;;;2081335;28;20483;-68
2022/02/21 00:59:04;;;;;;;2.33;0.85;;;6.70;95.40;;;;;;2081241;28;20181;-68
2022/02/21 01:00:06;;;;;;;2.00;1.00;;;6.70;96.20;;;;;;2081060;28;20182;-68
2022/02/21 01:01:07;;;;;;;3.03;1.10;;;6.70;95.90;;;;;;2081240;28;20260;-68
2022/02/21 01:02:08;;;;;;;2.57;1.20;;;6.60;96.70;;;;;;2072457;28;20635;-68
2022/02/21 01:03:08;;;;;;;4.97;1.23;;;6.60;97.00;;;;;;2064294;28;20643;-68
2022/02/21 01:04:09;;;;;;;1.30;0.70;;;6.60;97.30;;;;;;2072441;28;20642;-67
2022/02/21 01:05:10;;;;;;;2.13;0.80;;;6.50;96.90;;;;;;2081039;28;20177;-66
2022/02/21 01:06:11;;;;;;;3.87;0.93;;;6.60;96.90;;;;;;2072115;28;20197;-67
2022/02/21 01:07:12;;;;;;;1.65;0.88;;;6.60;97.10;;;;;;2072500;28;20189;-67
2022/02/21 01:08:12;;;;;;;2.83;0.80;;;6.60;98.00;;;;;;2081156;28;20219;-67
2022/02/21 01:09:13;;;;;;;0.93;0.70;;;6.60;97.30;;;;;;2081083;28;20276;-67
2022/02/21 01:10:14;;;;;;;2.00;0.90;;;6.50;97.70;;;;;;2081163;28;20184;-67
2022/02/21 01:11:15;;;;;;;3.03;1.07;;;6.50;97.00;;;;;;2072387;28;20261;-68
2022/02/21 01:12:15;;;;;;;1.10;0.63;;;6.50;97.40;;;;;;2072357;28;20437;-67
2022/02/21 01:13:16;;;;;;;2.40;1.20;;;6.50;98.00;;;;;;2081233;28;20195;-67
2022/02/21 01:14:17;;;;;;;2.83;0.83;;;6.40;98.50;;;;;;2081027;28;20279;-66
2022/02/21 01:15:18;;;;;;;3.13;0.80;;;6.40;98.80;;;;;;2072103;28;20190;-67
2022/02/21 01:16:18;;;;;;;2.33;0.87;;;6.40;99.50;;;;;;2064337;28;20221;-67
2022/02/21 01:17:22;;;;;;;4.83;1.00;;;6.30;99.80;;;;;;2072270;28;20200;-66
2022/02/21 01:18:23;;;;;;;1.00;0.90;;;6.30;99.80;;;;;;2081124;28;20676;-67
2022/02/21 01:19:23;;;;;;;2.13;0.80;;;6.30;98.50;;;;;;2072159;28;20197;-67
2022/02/21 01:20:24;;;;;;;1.30;0.67;;;6.40;98.90;;;;;;2064092;28;20182;-67
2022/02/21 01:21:25;;;;;;;1.10;0.50;;;6.30;99.70;;;;;;2072382;28;20209;-66
2022/02/21 01:22:26;;;;;;;2.10;0.70;;;6.40;99.30;;;;;;2081208;28;20185;-66
2022/02/21 01:23:26;;;;;;;3.20;1.17;;;6.40;99.40;;;;;;2081133;28;20523;-67
2022/02/21 01:24:27;;;;;;;1.70;0.70;;;6.30;99.90;;;;;;2064153;28;20293;-66
2022/02/21 01:25:28;;;;;;;0.60;0.50;;;6.40;99.70;;;;;;2063842;28;20643;-68
2022/02/21 01:26:28;;;;;;;2.60;1.17;;;6.40;98.70;;;;;;2081212;28;20201;-67
2022/02/21 01:27:29;;;;;;;0.90;0.70;;;6.30;99.90;;;;;;2081050;28;20185;-67
2022/02/21 01:28:30;;;;;;;1.63;0.60;;;6.30;99.90;;;;;;2072113;28;20186;-67
2022/02/21 01:29:30;;;;;;;1.47;0.80;;;6.30;99.90;;;;;;2072262;28;20666;-68
2022/02/21 01:30:31;;;;;;;2.70;0.63;;;6.20;99.90;;;;;;2080306;28;20929;-68
2022/02/21 01:31:32;;;;;;;1.77;0.80;;;6.20;99.90;;;;;;2071867;28;20751;-67
2022/02/21 01:32:32;;;;;;;2.70;0.70;;;6.10;99.90;;;;;;2064178;28;20190;-67
2022/02/21 01:33:33;;;;;;;0.93;0.63;;;6.10;99.90;;;;;;2072165;28;20236;-68
2022/02/21 01:34:34;;;;;;;1.23;0.80;;;6.10;99.90;;;;;;2072313;28;20182;-67
2022/02/21 01:35:34;;;;;;;3.47;0.90;;;6.00;99.90;;;;;;2071991;28;20181;-67
2022/02/21 01:36:35;;;;;;;3.43;0.80;;;6.00;99.90;;;;;;2081066;28;20176;-66
2022/02/21 01:37:36;;;;;;;1.03;0.57;;;6.00;99.90;;;;;;2080833;28;20177;-67
2022/02/21 01:38:37;;;;;;;2.63;0.87;;;6.00;99.90;;;;;;2071928;28;20991;-67
2022/02/21 01:39:38;;;;;;;0.90;0.63;;;5.90;99.90;;;;;;2071983;28;20592;-66
2022/02/21 01:40:38;;;;;;;0.97;0.60;;;5.80;99.90;;;;;;2063968;28;20193;-67
2022/02/21 01:41:39;;;;;;;0.90;0.63;;;5.80;99.90;;;;;;2063797;28;20194;-69
2022/02/21 01:42:40;;;;;;;1.95;0.73;;;5.80;99.90;;;;;;2072128;28;20177;-67
2022/02/21 01:43:41;;;;;;;3.17;0.90;;;5.80;99.90;;;;;;2072068;28;20178;-68
2022/02/21 01:44:45;;;;;;;1.67;0.77;;;5.80;99.90;;;;;;2063902;28;20218;-68
2022/02/21 01:45:46;;;;;;;2.08;0.70;;;5.80;99.90;;;;;;2064814;28;20174;-67
2022/02/21 01:46:47;;;;;;;0.60;0.60;;;5.80;99.90;;;;;;2080954;28;20648;-68
2022/02/21 01:47:48;;;;;;;1.13;0.63;;;5.80;99.90;;;;;;2072186;28;20196;-67
2022/02/21 01:48:48;;;;;;;3.40;1.10;;;5.80;99.90;;;;;;2072108;28;20178;-67
2022/02/21 01:49:50;;;;;;;0.67;0.50;;;5.80;99.90;;;;;;2080788;28;20207;-67
2022/02/21 01:50:51;;;;;;;1.90;0.80;;;5.80;99.90;;;;;;2072061;28;20553;-67
2022/02/21 01:51:51;;;;;;;2.63;0.80;;;5.80;99.90;;;;;;2063742;28;20269;-69
2022/02/21 01:52:53;;;;;;;0.83;0.60;;;5.80;99.90;;;;;;2072111;28;20217;-67
2022/02/21 01:53:55;;;;;;;2.35;0.90;;;5.80;99.90;;;;;;2072020;28;20178;-67
2022/02/21 01:54:57;;;;;;;2.65;1.38;;;5.70;99.90;;;;;;2072460;28;20223;-67
2022/02/21 01:55:58;;;;;;;1.70;0.90;;;5.70;99.90;;;;;;2080775;28;20197;-67
2022/02/21 01:56:59;;;;;;;2.60;0.70;;;5.70;99.90;;;;;;2072130;28;20177;-68
2022/02/21 01:58:00;;;;;;;1.50;0.70;;;5.70;99.90;;;;;;2055843;28;20214;-67
2022/02/21 01:59:02;;;;;;;2.93;0.70;;;5.80;99.90;;;;;;2063658;28;20179;-67
2022/02/21 02:00:05;;;;;;;2.47;0.70;;;5.80;99.90;;;;;;2071020;28;20216;-67
2022/02/21 02:01:05;;;;;;;3.60;0.88;;;5.80;99.90;;;;;;2080655;28;20185;-67
2022/02/21 02:02:07;;;;;;;0.83;0.50;;;5.80;99.90;;;;;;2080708;28;20177;-66
2022/02/21 02:03:08;;;;;;;1.30;0.90;;;5.80;99.90;;;;;;2071907;28;20349;-66
2022/02/21 02:04:10;;;;;;;4.37;0.87;;;5.90;99.90;;;;;;2063956;28;20655;-66
2022/02/21 02:05:15;;;;;;;1.60;0.55;;;5.80;99.90;;;;;;2072058;28;20178;-66
2022/02/21 02:06:17;;;;;;;1.20;0.60;;;5.90;99.90;;;;;;2080920;28;20286;-66
2022/02/21 02:07:18;;;;;;;2.53;0.80;;;5.90;99.90;;;;;;2080822;28;20284;-66
2022/02/21 02:08:19;;;;;;;2.67;1.00;;;5.90;99.90;;;;;;2071830;28;20646;-65
2022/02/21 02:09:20;;;;;;;1.50;0.70;;;5.90;99.90;;;;;;2072036;28;20196;-65
2022/02/21 02:10:22;;;;;;;1.02;0.70;;;5.90;99.90;;;;;;2063809;28;20559;-66
2022/02/21 02:11:27;;;;;;;2.13;0.88;;;5.90;99.90;;;;;;2064168;28;20195;-66
2022/02/21 02:12:28;;;;;;;2.10;0.65;;;5.90;99.90;;;;;;2071996;28;20997;-66
2022/02/21 02:13:29;;;;;;;4.07;0.70;;;6.00;99.90;;;;;;2063616;28;20217;-66
2022/02/21 02:14:37;;;;;;;1.27;0.70;;;6.00;99.90;;;;;;2072071;28;20182;-67
2022/02/21 02:15:38;;;;;;;1.75;0.70;;;6.00;99.90;;;;;;2080502;28;20239;-68
2022/02/21 02:16:39;;;;;;;1.00;0.60;;;6.10;99.90;;;;;;2080986;28;20197;-68
2022/02/21 02:17:40;;;;;;;1.90;0.67;;;6.10;99.90;;;;;;2080599;28;20185;-67
2022/02/21 02:18:41;;;;;;;4.35;1.25;;;6.10;99.90;;;;;;2080560;28;20184;-66
2022/02/21 02:19:44;;;;;;;0.57;0.57;;;6.00;99.90;;;;;;2080812;28;20264;-66
2022/02/21 02:20:45;;;;;;;1.20;0.63;;;6.00;99.90;;;;;;2071947;28;21025;-66
2022/02/21 02:21:53;;;;;;;1.70;0.60;;;6.10;99.90;;;;;;2063672;28;20221;-65
2022/02/21 02:22:54;;;;;;;1.77;1.00;;;6.00;99.90;;;;;;2064822;28;20258;-67
2022/02/21 02:23:55;;;;;;;0.73;0.67;;;6.00;99.90;;;;;;2071905;28;20174;-66
2022/02/21 02:24:56;;;;;;;1.08;0.60;;;6.00;99.90;;;;;;2080661;28;20201;-67
2022/02/21 02:25:57;;;;;;;1.47;0.60;;;6.00;99.90;;;;;;2080396;28;20247;-66
2022/02/21 02:26:58;;;;;;;1.38;1.00;;;6.00;99.90;;;;;;2063803;28;20694;-66
2022/02/21 02:27:58;;;;;;;0.70;0.60;;;6.00;99.90;;;;;;2063710;28;20190;-66
2022/02/21 02:28:59;;;;;;;2.70;0.50;;;6.00;99.90;;;;;;2080648;28;20192;-66
2022/02/21 02:30:04;;;;;;;0.93;0.60;;;6.00;99.90;;;;;;2080497;28;20176;-66
2022/02/21 02:31:05;;;;;;;1.23;0.55;;;6.10;99.90;;;;;;2080706;28;20684;-66
2022/02/21 02:32:07;;;;;;;0.97;0.53;;;6.00;99.90;;;;;;2080687;28;20187;-71
2022/02/21 02:33:08;;;;;;;0.45;0.45;;;6.00;99.90;;;;;;2080636;28;20222;-66
2022/02/21 02:34:08;;;;;;;1.23;0.80;;;6.00;99.90;;;;;;2080657;28;20211;-66
2022/02/21 02:35:09;;;;;;;1.07;0.80;;;5.90;99.90;;;;;;2080404;28;20185;-64
2022/02/21 02:36:10;;;;;;;0.70;0.50;;;6.00;99.90;;;;;;2080829;28;20678;-66
2022/02/21 02:37:12;;;;;;;1.37;0.90;;;6.00;99.90;;;;;;2072010;28;20506;-66
2022/02/21 02:38:13;;;;;;;1.85;0.55;;;6.00;99.90;;;;;;2063878;28;20754;-66
2022/02/21 02:39:16;;;;;;;0.70;0.60;;;6.00;99.90;;;;;;2071865;28;20277;-65
2022/02/21 02:40:17;;;;;;;1.35;0.40;;;6.10;99.90;;;;;;2080472;28;20185;-67
2022/02/21 02:41:18;;;;;;;3.63;0.90;;;6.00;99.90;;;;;;2080623;28;20173;-66
2022/02/21 02:42:19;;;;;;;0.47;0.37;;;6.00;99.90;;;;;;2081418;28;20188;-66
2022/02/21 02:43:19;;;;;;;0.80;0.50;;;6.00;99.90;;;;;;2073459;28;20178;-67
2022/02/21 02:44:20;;;;;;;0.50;0.50;;;6.00;99.90;;;;;;2073339;28;20193;-67
2022/02/21 02:45:21;;;;;;;0.82;0.60;;;6.00;99.90;;;;;;2073218;28;20332;-67
2022/02/21 02:46:21;;;;;;;0.97;0.60;;;6.00;99.90;;;;;;2073446;28;20198;-67
2022/02/21 02:47:22;;;;;;;0.67;0.60;;;5.90;99.90;;;;;;2082182;28;20181;-66
2022/02/21 02:48:23;;;;;;;0.90;0.60;;;5.90;99.90;;;;;;2082005;28;20173;-66
2022/02/21 02:49:23;;;;;;;0.77;0.53;;;5.90;99.90;;;;;;2082114;28;20208;-66
2022/02/21 02:50:24;;;;;;;0.40;0.40;;;5.90;99.90;;;;;;2073234;28;20173;-67
2022/02/21 02:51:25;;;;;;;0.70;0.40;;;5.90;99.90;;;;;;2073372;28;20768;-66
2022/02/21 02:52:25;;;;;;;0.77;0.47;;;5.90;99.90;;;;;;2073293;28;20182;-65
2022/02/21 02:53:28;;;;;;;0.90;0.50;;;5.90;99.90;;;;;;2073363;28;20190;-66
2022/02/21 02:54:29;;;;;;;1.05;0.52;;;5.90;99.90;;;;;;2082124;28;20256;-67
2022/02/21 02:55:30;;;;;;;1.10;0.50;;;5.90;99.90;;;;;;2081772;28;20181;-67
2022/02/21 02:56:30;;;;;;;0.47;0.47;;;5.90;99.90;;;;;;2081974;28;20267;-66
2022/02/21 02:57:31;;;;;;;1.13;0.50;;;5.90;99.90;;;;;;2082060;28;20251;-66
2022/02/21 02:58:31;;;;;;;0.73;0.60;;;5.90;99.90;;;;;;2082227;28;20184;-65
2022/02/21 02:59:32;;;;;;;1.00;0.50;;;5.90;99.90;;;;;;2082126;28;20185;-65
2022/02/21 03:00:33;;;;;;;0.50;0.50;;;5.90;99.90;;;;;;2082098;28;20218;-68
2022/02/21 03:01:34;;;;;;;2.63;0.50;;;5.90;99.90;;;;;;2082044;28;20196;-69
2022/02/21 03:02:35;;;;;;;0.70;0.47;;;5.80;99.90;;;;;;2082042;28;20169;-66
2022/02/21 03:03:36;;;;;;;1.13;0.67;;;5.80;99.90;;;;;;2082117;28;20534;-65
2022/02/21 03:04:36;;;;;;;1.27;0.50;;;5.80;99.90;;;;;;2082014;28;20208;-66
2022/02/21 03:05:37;;;;;;;1.23;0.47;;;5.80;99.90;;;;;;2073007;28;20185;-67
2022/02/21 03:06:38;;;;;;;0.47;0.47;;;5.80;99.90;;;;;;2073419;28;20553;-65
2022/02/21 03:07:38;;;;;;;1.27;0.50;;;5.80;99.90;;;;;;2082036;28;20181;-66
2022/02/21 03:08:39;;;;;;;0.43;0.43;;;5.80;99.90;;;;;;2082081;28;20181;-70
2022/02/21 03:09:40;;;;;;;0.60;0.40;;;5.90;99.90;;;;;;2081941;28;20177;-68
2022/02/21 03:10:41;;;;;;;1.87;0.57;;;5.80;99.90;;;;;;2081975;28;20874;-66
2022/02/21 03:11:41;;;;;;;0.88;0.50;;;5.80;99.90;;;;;;2081968;28;20184;-67
2022/02/21 03:12:43;;;;;;;0.97;0.60;;;5.80;99.90;;;;;;2073283;28;20186;-67
2022/02/21 03:13:44;;;;;;;1.27;0.55;;;5.80;99.90;;;;;;2073346;28;20185;-66
2022/02/21 03:14:45;;;;;;;2.90;0.57;;;5.80;99.90;;;;;;2082068;28;20188;-67
2022/02/21 03:15:45;;;;;;;1.37;0.60;;;5.80;99.90;;;;;;2081796;28;20181;-67
2022/02/21 03:16:46;;;;;;;0.67;0.57;;;5.80;99.90;;;;;;2082219;28;20188;-67
2022/02/21 03:17:47;;;;;;;1.20;0.50;;;5.80;99.90;;;;;;2081860;28;20208;-67
2022/02/21 03:18:47;;;;;;;2.23;0.80;;;5.80;99.90;;;;;;2082013;28;20431;-67
2022/02/21 03:19:48;;;;;;;1.03;0.50;;;5.80;99.90;;;;;;2081978;28;20173;-67
2022/02/21 03:20:49;;;;;;;0.90;0.40;;;5.90;99.90;;;;;;2082066;28;20642;-66
2022/02/21 03:21:51;;;;;;;0.50;0.50;;;5.90;99.90;;;;;;2081922;28;20283;-67
2022/02/21 03:22:52;;;;;;;2.00;0.60;;;6.00;99.90;;;;;;2081943;28;20173;-67
2022/02/21 03:23:53;;;;;;;0.77;0.60;;;6.00;99.90;;;;;;2081971;28;20776;-66
2022/02/21 03:24:53;;;;;;;0.50;0.50;;;6.00;99.90;;;;;;2081921;28;20637;-67
2022/02/21 03:25:54;;;;;;;1.80;0.40;;;6.00;99.90;;;;;;2081944;28;20196;-67
2022/02/21 03:26:55;;;;;;;1.10;0.70;;;6.00;99.90;;;;;;2073437;28;20363;-67
2022/02/21 03:27:56;;;;;;;1.43;0.50;;;6.00;99.90;;;;;;2065054;28;20198;-67
2022/02/21 03:28:57;;;;;;;0.93;0.50;;;5.90;99.90;;;;;;2073141;28;20195;-65
2022/02/21 03:29:57;;;;;;;0.77;0.53;;;5.90;99.90;;;;;;2081908;28;20669;-67
2022/02/21 03:30:58;;;;;;;1.00;0.50;;;5.90;99.90;;;;;;2081989;28;20251;-66
2022/02/21 03:31:59;;;;;;;0.30;0.30;;;5.90;99.90;;;;;;2081563;28;20177;-66
2022/02/21 03:33:01;;;;;;;0.50;0.50;;;5.90;99.90;;;;;;2081766;28;20181;-67
2022/02/21 03:34:02;;;;;;;1.08;1.08;;;5.90;99.90;;;;;;2081778;28;20177;-68
2022/02/21 03:35:05;;;;;;;1.87;0.47;;;5.90;99.90;;;;;;2073039;28;20186;-67
2022/02/21 03:36:06;;;;;;;0.60;0.47;;;5.90;99.90;;;;;;2065095;28;20209;-67
2022/02/21 03:37:06;;;;;;;1.35;0.50;;;5.90;99.90;;;;;;2065203;28;20645;-68
2022/02/21 03:38:07;;;;;;;1.30;0.40;;;5.90;99.90;;;;;;2056683;28;20219;-66
2022/02/21 03:39:08;;;;;;;0.50;0.50;;;5.90;99.90;;;;;;2064866;28;20256;-67
2022/02/21 03:40:09;;;;;;;0.63;0.40;;;5.90;99.90;;;;;;2072885;28;20823;-67
2022/02/21 03:41:10;;;;;;;0.60;0.40;;;5.90;99.90;;;;;;2073206;28;20213;-67
2022/02/21 03:42:11;;;;;;;1.30;0.60;;;5.90;99.90;;;;;;2072957;28;20209;-65
2022/02/21 03:43:11;;;;;;;1.43;0.40;;;5.90;99.90;;;;;;2072944;28;20601;-67
2022/02/21 03:44:12;;;;;;;0.40;0.40;;;5.90;99.90;;;;;;2081699;28;20184;-67
2022/02/21 03:45:13;;;;;;;0.83;0.40;;;5.90;99.90;;;;;;2081375;28;20189;-66
2022/02/21 03:46:14;;;;;;;1.77;0.40;;;5.90;99.90;;;;;;2081899;28;20692;-67
2022/02/21 03:47:15;;;;;;;0.73;0.40;;;5.90;99.90;;;;;;2081825;28;20416;-67
2022/02/21 03:48:16;;;;;;;0.40;0.40;;;5.90;99.90;;;;;;2081797;28;20185;-67
2022/02/21 03:49:17;;;;;;;1.85;0.43;;;5.90;99.90;;;;;;2081648;28;20185;-66
2022/02/21 03:50:19;;;;;;;0.30;0.30;;;5.90;99.90;;;;;;2072844;28;20185;-67
2022/02/21 03:51:19;;;;;;;2.03;0.50;;;5.90;99.90;;;;;;2064881;28;20178;-66
2022/02/21 03:52:20;;;;;;;1.53;0.80;;;5.90;99.90;;;;;;2072905;28;20194;-66
2022/02/21 03:53:21;;;;;;;0.73;0.50;;;5.90;99.90;;;;;;2081167;28;20185;-67
2022/02/21 03:54:21;;;;;;;1.07;0.50;;;5.90;99.90;;;;;;2081086;28;20181;-66
2022/02/21 03:55:22;;;;;;;0.70;0.43;;;5.90;99.90;;;;;;2081369;28;20177;-67
2022/02/21 03:56:23;;;;;;;0.30;0.30;;;5.90;99.90;;;;;;2081672;28;20200;-67
2022/02/21 03:57:23;;;;;;;1.30;0.50;;;5.90;99.90;;;;;;2072791;28;20193;-66
2022/02/21 03:58:24;;;;;;;0.50;0.43;;;5.90;99.90;;;;;;2072485;28;20213;-67
2022/02/21 03:59:25;;;;;;;0.80;0.40;;;5.90;99.90;;;;;;2072742;28;20182;-67
2022/02/21 04:00:26;;;;;;;0.70;0.23;;;5.90;99.90;;;;;;2072803;28;20693;-66
2022/02/21 04:01:26;;;;;;;0.30;0.30;;;6.00;99.90;;;;;;2081652;28;20634;-67
2022/02/21 04:02:27;;;;;;;1.80;0.50;;;6.00;99.90;;;;;;2081595;28;20181;-67
2022/02/21 04:03:28;;;;;;;1.03;0.40;;;6.00;99.90;;;;;;2081604;28;20565;-67
2022/02/21 04:04:28;;;;;;;1.33;0.70;;;6.00;99.90;;;;;;2081557;28;20542;-67
2022/02/21 04:05:29;;;;;;;0.30;0.30;;;6.10;99.90;;;;;;2072435;28;20272;-67
2022/02/21 04:06:30;;;;;;;0.30;0.30;;;6.10;99.90;;;;;;2072781;28;20673;-67
2022/02/21 04:07:31;;;;;;;1.20;0.50;;;6.10;99.90;;;;;;2081511;28;20177;-67
2022/02/21 04:08:31;;;;;;;0.70;0.47;;;6.10;99.90;;;;;;2081636;28;20181;-67
2022/02/21 04:09:32;;;;;;;2.10;0.60;;;6.00;99.90;;;;;;2081450;28;20181;-67
2022/02/21 04:10:33;;;;;;;3.17;0.83;;;5.90;99.90;;;;;;2081490;28;20183;-67
2022/02/21 04:11:34;;;;;;;1.70;0.43;;;5.90;99.90;;;;;;2081416;28;20181;-67
2022/02/21 04:12:34;;;;;;;0.40;0.40;;;5.80;99.90;;;;;;2081365;28;20251;-67
2022/02/21 04:13:35;;;;;;;0.87;0.60;;;5.80;99.90;;;;;;2072578;28;20282;-67
2022/02/21 04:14:36;;;;;;;0.50;0.50;;;5.80;99.90;;;;;;2072715;28;20195;-67
2022/02/21 04:15:36;;;;;;;0.80;0.40;;;5.80;99.90;;;;;;2081201;28;20647;-67
2022/02/21 04:16:37;;;;;;;1.07;0.40;;;5.80;99.90;;;;;;2081463;28;20247;-67
2022/02/21 04:17:43;;;;;;;0.93;0.50;;;5.80;99.90;;;;;;2081431;28;20173;-67
2022/02/21 04:18:43;;;;;;;0.45;0.40;;;5.70;99.90;;;;;;2072751;28;20174;-67
2022/02/21 04:19:47;;;;;;;0.50;0.40;;;5.80;99.90;;;;;;2072655;28;20207;-66
2022/02/21 04:20:48;;;;;;;1.48;0.40;;;5.70;99.90;;;;;;2081381;28;20260;-66
2022/02/21 04:21:48;;;;;;;0.63;0.40;;;5.70;99.90;;;;;;2081408;28;20181;-66
2022/02/21 04:22:50;;;;;;;0.47;0.40;;;5.60;99.90;;;;;;2072724;28;20178;-67
2022/02/21 04:23:51;;;;;;;0.80;0.45;;;5.60;99.90;;;;;;2064603;28;20536;-67
2022/02/21 04:24:51;;;;;;;0.60;0.50;;;5.70;99.90;;;;;;2072569;28;20181;-66
2022/02/21 04:25:52;;;;;;;1.90;0.43;;;5.70;99.90;;;;;;2081229;28;20615;-67
2022/02/21 04:26:53;;;;;;;0.50;0.50;;;5.60;99.90;;;;;;2081531;28;20187;-66
2022/02/21 04:27:54;;;;;;;0.30;0.30;;;5.60;99.90;;;;;;2081333;28;20181;-66
2022/02/21 04:28:55;;;;;;;1.60;0.30;;;5.60;99.90;;;;;;2072570;28;20197;-66
2022/02/21 04:29:56;;;;;;;0.53;0.30;;;5.60;99.90;;;;;;2072766;28;20193;-67
2022/02/21 04:30:56;;;;;;;0.73;0.47;;;5.40;99.90;;;;;;2072810;28;20544;-67
2022/02/21 04:31:57;;;;;;;0.47;0.20;;;5.00;99.90;;;;;;2064450;28;20305;-65
2022/02/21 04:32:58;;;;;;;0.10;0.10;;;4.10;99.90;;;;;;2064439;28;20185;-67
2022/02/21 04:33:59;;;;;;;0.20;0.20;;;3.40;99.90;;;;;;2072698;28;20189;-66
2022/02/21 04:34:59;;;;;;;0.10;0.10;;;2.80;99.90;;;;;;2081285;28;20179;-66
2022/02/21 04:36:00;;;;;;;0.10;0.10;;;2.30;99.90;;;;;;2081104;28;20206;-67
2022/02/21 04:37:01;;;;;;;0.10;0.10;;;2.10;99.90;;;;;;2081250;28;20665;-66
2022/02/21 04:38:01;;;;;;;0.10;0.10;;;1.90;99.90;;;;;;2072358;28;20291;-67
2022/02/21 04:39:02;;;;;;;0.30;0.30;;;1.80;99.90;;;;;;2072320;28;20171;-67
2022/02/21 04:40:06;;;;;;;0.30;0.30;;;1.70;99.90;;;;;;2072554;28;20209;-66
2022/02/21 04:41:07;;;;;;;0.10;0.10;;;1.60;99.90;;;;;;2064681;28;20190;-66
2022/02/21 04:42:08;;;;;;;0.20;0.20;;;1.50;99.90;;;;;;2064406;28;20185;-67
2022/02/21 04:43:08;;;;;;;0.03;0.03;;;1.40;99.90;;;;;;2072508;28;20173;-67
2022/02/21 04:44:09;;;;;;;1.13;0.20;;;1.30;99.90;;;;;;2081242;28;20218;-66
2022/02/21 04:45:10;;;;;;;2.47;1.17;;;1.30;99.90;;;;;;2080861;28;20189;-66
2022/02/21 04:46:11;;;;;;;0.47;0.35;;;1.30;99.90;;;;;;2081294;28;20201;-66
2022/02/21 04:47:12;;;;;;;0.30;0.30;;;1.20;99.90;;;;;;2072485;28;20178;-67
2022/02/21 04:48:12;;;;;;;0.93;0.30;;;1.10;99.90;;;;;;2072627;28;20196;-68
2022/02/21 04:49:13;;;;;;;0.83;0.83;;;1.00;99.90;;;;;;2072338;28;20177;-66
2022/02/21 04:50:15;;;;;;;0.30;0.27;;;1.00;99.90;;;;;;2072497;28;20264;-66
2022/02/21 04:51:15;;;;;;;0.22;0.22;;;0.90;99.90;;;;;;2072274;28;20276;-67
2022/02/21 04:52:16;;;;;;;0.33;0.20;;;0.90;99.90;;;;;;2072429;28;20229;-66
2022/02/21 04:53:17;;;;;;;0.20;0.20;;;0.90;99.90;;;;;;2081163;28;20196;-67
2022/02/21 04:54:18;;;;;;;1.10;0.30;;;0.90;99.90;;;;;;2081119;28;20248;-67
2022/02/21 04:55:19;;;;;;;0.33;0.30;;;0.90;99.90;;;;;;2072147;28;20216;-67
2022/02/21 04:56:19;;;;;;;0.50;0.50;;;0.90;99.90;;;;;;2064293;28;20206;-66
2022/02/21 04:57:20;;;;;;;1.13;0.70;;;0.90;99.90;;;;;;2072333;28;20211;-67
2022/02/21 04:58:21;;;;;;;0.33;0.30;;;0.80;99.90;;;;;;2072377;28;20216;-67
2022/02/21 04:59:21;;;;;;;0.63;0.60;;;0.80;99.90;;;;;;2064258;28;20183;-66
2022/02/21 05:00:22;;;;;;;1.20;0.33;;;0.70;99.90;;;;;;2072449;28;20178;-66
2022/02/21 05:01:23;;;;;;;1.57;1.20;;;0.70;99.90;;;;;;2064199;28;20531;-67
2022/02/21 05:02:23;;;;;;;0.93;0.47;;;0.70;99.90;;;;;;2064240;28;20179;-67
2022/02/21 05:03:24;;;;;;;1.10;0.57;;;0.60;99.90;;;;;;2072465;28;20182;-66
2022/02/21 05:04:25;;;;;;;0.60;0.60;;;0.60;99.90;;;;;;2064184;28;20178;-67
2022/02/21 05:05:25;;;;;;;2.63;0.80;;;0.50;99.90;;;;;;2071988;28;20186;-66
2022/02/21 05:06:26;;;;;;;1.93;0.73;;;0.50;99.90;;;;;;2081259;28;20677;-66
2022/02/21 05:07:27;;;;;;;2.57;0.80;;;0.50;99.90;;;;;;2081204;28;20559;-67
2022/02/21 05:08:29;;;;;;;1.43;1.00;;;0.50;99.90;;;;;;2081265;28;20609;-66
2022/02/21 05:09:30;;;;;;;1.23;0.65;;;0.50;99.90;;;;;;2072530;28;20178;-66
2022/02/21 05:10:31;;;;;;;2.83;0.93;;;0.60;99.90;;;;;;2072486;28;20200;-66
2022/02/21 05:11:31;;;;;;;1.00;0.60;;;0.60;99.90;;;;;;2081207;28;20182;-66
2022/02/21 05:12:32;;;;;;;1.07;0.67;;;0.50;99.90;;;;;;2081189;28;20924;-66
2022/02/21 05:13:33;;;;;;;2.23;0.90;;;0.60;99.90;;;;;;2072466;28;20186;-66
2022/02/21 05:14:33;;;;;;;0.93;0.80;;;0.60;99.90;;;;;;2064283;28;20220;-66
2022/02/21 05:15:34;;;;;;;3.07;0.83;;;0.70;99.90;;;;;;2072086;28;20174;-67
2022/02/21 05:16:35;;;;;;;1.40;0.83;;;0.70;99.90;;;;;;2081203;28;20227;-67
2022/02/21 05:17:36;;;;;;;0.73;0.60;;;0.60;99.90;;;;;;2081162;28;20708;-68
2022/02/21 05:18:37;;;;;;;1.17;0.70;;;0.60;99.90;;;;;;2072272;28;20182;-67
2022/02/21 05:19:37;;;;;;;2.90;1.37;;;0.70;99.90;;;;;;2072287;28;20186;-67
2022/02/21 05:20:38;;;;;;;1.50;0.70;;;0.60;99.90;;;;;;2072184;28;20206;-67
2022/02/21 05:21:39;;;;;;;1.03;0.63;;;0.60;99.90;;;;;;2080999;28;20178;-67